createdAt,value
2022-10-11T00:00:30.709Z,1011.24
2022-10-11T00:01:02.355Z,1011.24
2022-10-11T00:01:33.683Z,1011.31
2022-10-11T00:01:50.056Z,1011.31
2022-10-11T00:02:25.260Z,1011.31
2022-10-11T00:02:40.137Z,1011.24
2022-10-11T00:03:10.347Z,1011.24
2022-10-11T00:03:34.064Z,1011.41
2022-10-11T00:03:58.378Z,1011.41
2022-10-11T00:04:30.936Z,1011.41
2022-10-11T00:05:02.429Z,1011.31
2022-10-11T00:05:34.444Z,1011.31
2022-10-11T00:06:06.937Z,1011.31
2022-10-11T00:06:33.587Z,1011.24
2022-10-11T00:06:54.265Z,1011.24
2022-10-11T00:07:26.284Z,1011.24
2022-10-11T00:07:59.170Z,1011.04
2022-10-11T00:08:30.285Z,1011.04
2022-10-11T00:09:03.024Z,1011.24
2022-10-11T00:09:33.542Z,1011.41
2022-10-11T00:09:50.202Z,1011.41
2022-10-11T00:10:22.390Z,1011.41
2022-10-11T00:10:39.355Z,1011.24
2022-10-11T00:11:11.306Z,1011.24
2022-10-11T00:11:33.763Z,1011.31
2022-10-11T00:11:58.407Z,1011.31
2022-10-11T00:12:30.273Z,1011.31
2022-10-11T00:13:05.355Z,1011.24
2022-10-11T00:13:33.613Z,1011.31
2022-10-11T00:13:50.208Z,1011.31
2022-10-11T00:14:22.348Z,1011.31
2022-10-11T00:14:40.150Z,1011.41
2022-10-11T00:15:10.446Z,1011.41
2022-10-11T00:15:33.720Z,1011.14
2022-10-11T00:15:58.520Z,1011.14
2022-10-11T00:16:30.366Z,1011.14
2022-10-11T00:17:03.048Z,1011.31
2022-10-11T00:17:33.558Z,1011.41
2022-10-11T00:17:50.270Z,1011.41
2022-10-11T00:18:22.949Z,1011.41
2022-10-11T00:18:40.074Z,1011.31
2022-10-11T00:19:10.245Z,1011.31
2022-10-11T00:19:34.380Z,1011.24
2022-10-11T00:19:58.357Z,1011.24
2022-10-11T00:20:31.221Z,1011.24
2022-10-11T00:21:02.237Z,1011.31
2022-10-11T00:21:34.831Z,1011.41
2022-10-11T00:22:06.315Z,1011.41
2022-10-11T00:22:33.638Z,1011.24
2022-10-11T00:22:54.398Z,1011.24
2022-10-11T00:23:26.285Z,1011.24
2022-10-11T00:23:59.105Z,1011.51
2022-10-11T00:24:30.328Z,1011.51
2022-10-11T00:25:03.203Z,1011.14
2022-10-11T00:25:33.699Z,1011.41
2022-10-11T00:25:50.253Z,1011.41
2022-10-11T00:26:22.228Z,1011.41
2022-10-11T00:26:43.205Z,1011.24
2022-10-11T00:27:10.951Z,1011.24
2022-10-11T00:27:33.612Z,1011.14
2022-10-11T00:27:58.263Z,1011.14
2022-10-11T00:28:30.258Z,1011.14
2022-10-11T00:29:02.445Z,1011.41
2022-10-11T00:29:33.839Z,1011.31
2022-10-11T00:29:50.259Z,1011.31
2022-10-11T00:30:23.418Z,1011.31
2022-10-11T00:30:40.273Z,1011.24
2022-10-11T00:31:10.421Z,1011.24
2022-10-11T00:31:35.843Z,1011.31
2022-10-11T00:31:59.003Z,1011.31
2022-10-11T00:32:30.243Z,1011.31
2022-10-11T00:33:02.988Z,1011.41
2022-10-11T00:33:33.676Z,1011.41
2022-10-11T00:33:50.047Z,1011.41
2022-10-11T00:34:22.300Z,1011.41
2022-10-11T00:34:39.493Z,1011.41
2022-10-11T00:35:11.293Z,1011.41
2022-10-11T00:35:33.594Z,1011.41
2022-10-11T00:35:58.408Z,1011.41
2022-10-11T00:36:30.250Z,1011.41
2022-10-11T00:37:02.390Z,1011.61
2022-10-11T00:37:33.669Z,1011.24
2022-10-11T00:37:50.411Z,1011.24
2022-10-11T00:38:23.001Z,1011.24
2022-10-11T00:38:40.145Z,1011.41
2022-10-11T00:39:10.414Z,1011.41
2022-10-11T00:39:33.694Z,1011.31
2022-10-11T00:39:58.899Z,1011.31
2022-10-11T00:40:30.403Z,1011.31
2022-10-11T00:41:03.113Z,1011.41
2022-10-11T00:41:33.615Z,1011.61
2022-10-11T00:41:50.159Z,1011.61
2022-10-11T00:42:22.272Z,1011.61
2022-10-11T00:42:39.395Z,1011.51
2022-10-11T00:43:11.108Z,1011.51
2022-10-11T00:43:33.736Z,1011.41
2022-10-11T00:43:58.485Z,1011.41
2022-10-11T00:44:30.428Z,1011.41
2022-10-11T00:45:02.509Z,1011.51
2022-10-11T00:45:34.263Z,1011.41
2022-10-11T00:46:06.844Z,1011.41
2022-10-11T00:46:33.572Z,1011.51
2022-10-11T00:46:55.872Z,1011.51
2022-10-11T00:47:27.498Z,1011.51
2022-10-11T00:47:58.430Z,1011.51
2022-10-11T00:48:30.908Z,1011.51
2022-10-11T00:49:02.209Z,1011.41
2022-10-11T00:49:34.380Z,1011.51
2022-10-11T00:50:06.496Z,1011.51
2022-10-11T00:50:33.546Z,1011.51
2022-10-11T00:50:54.481Z,1011.51
2022-10-11T00:51:26.362Z,1011.51
2022-10-11T00:51:59.117Z,1011.61
2022-10-11T00:52:30.577Z,1011.61
2022-10-11T00:53:02.969Z,1011.41
2022-10-11T00:53:33.728Z,1011.41
2022-10-11T00:53:50.047Z,1011.41
2022-10-11T00:54:22.337Z,1011.41
2022-10-11T00:54:39.545Z,1011.51
2022-10-11T00:55:11.193Z,1011.51
2022-10-11T00:55:33.540Z,1011.61
2022-10-11T00:55:58.413Z,1011.61
2022-10-11T00:56:31.047Z,1011.61
2022-10-11T00:57:02.483Z,1011.51
2022-10-11T00:57:34.660Z,1011.51
2022-10-11T00:58:06.251Z,1011.51
2022-10-11T00:58:33.804Z,1011.41
2022-10-11T00:58:54.941Z,1011.41
2022-10-11T00:59:26.433Z,1011.41
2022-10-11T00:59:59.045Z,1011.51
2022-10-11T01:00:30.400Z,1011.51
2022-10-11T01:01:03.030Z,1011.51
2022-10-11T01:01:34.116Z,1011.61
2022-10-11T01:02:06.321Z,1011.61
2022-10-11T01:02:34.053Z,1011.41
2022-10-11T01:02:54.388Z,1011.41
2022-10-11T01:03:27.011Z,1011.41
2022-10-11T01:03:58.135Z,1011.61
2022-10-11T01:04:31.122Z,1011.61
2022-10-11T01:05:27.742Z,1011.51
2022-10-11T01:05:34.600Z,1011.51
2022-10-11T01:06:06.611Z,1011.51
2022-10-11T01:06:33.715Z,1011.51
2022-10-11T01:06:54.333Z,1011.51
2022-10-11T01:07:26.454Z,1011.51
2022-10-11T01:07:58.974Z,1011.51
2022-10-11T01:08:30.278Z,1011.51
2022-10-11T01:09:03.387Z,1011.61
2022-10-11T01:09:33.555Z,1011.61
2022-10-11T01:09:50.133Z,1011.61
2022-10-11T01:10:22.370Z,1011.61
2022-10-11T01:10:39.361Z,1011.72
2022-10-11T01:11:11.133Z,1011.72
2022-10-11T01:11:33.741Z,1011.24
2022-10-11T01:11:58.425Z,1011.24
2022-10-11T01:12:30.923Z,1011.24
2022-10-11T01:13:02.256Z,1011.61
2022-10-11T01:13:33.612Z,1011.72
2022-10-11T01:13:50.786Z,1011.72
2022-10-11T01:14:22.417Z,1011.72
2022-10-11T01:14:39.459Z,1011.51
2022-10-11T01:15:11.414Z,1011.51
2022-10-11T01:15:33.786Z,1011.61
2022-10-11T01:15:58.599Z,1011.61
2022-10-11T01:16:30.418Z,1011.61
2022-10-11T01:17:02.289Z,1011.61
2022-10-11T01:17:33.761Z,1011.41
2022-10-11T01:17:50.162Z,1011.41
2022-10-11T01:18:22.994Z,1011.41
2022-10-11T01:18:40.052Z,1011.61
2022-10-11T01:19:10.331Z,1011.61
2022-10-11T01:19:33.573Z,1011.51
2022-10-11T01:19:58.282Z,1011.51
2022-10-11T01:20:31.273Z,1011.51
2022-10-11T01:21:02.227Z,1011.41
2022-10-11T01:21:34.348Z,1011.51
2022-10-11T01:22:06.431Z,1011.51
2022-10-11T01:22:33.597Z,1011.41
2022-10-11T01:22:54.935Z,1011.41
2022-10-11T01:23:26.303Z,1011.41
2022-10-11T01:23:59.183Z,1011.61
2022-10-11T01:24:30.343Z,1011.61
2022-10-11T01:25:03.207Z,1011.82
2022-10-11T01:25:33.768Z,1011.61
2022-10-11T01:25:50.253Z,1011.61
2022-10-11T01:26:22.305Z,1011.61
2022-10-11T01:26:39.339Z,1011.61
2022-10-11T01:27:10.864Z,1011.61
2022-10-11T01:27:34.245Z,1011.51
2022-10-11T01:27:58.310Z,1011.51
2022-10-11T01:28:31.146Z,1011.51
2022-10-11T01:29:02.353Z,1011.51
2022-10-11T01:29:34.868Z,1011.72
2022-10-11T01:30:06.382Z,1011.72
2022-10-11T01:30:33.773Z,1011.61
2022-10-11T01:30:55.319Z,1011.61
2022-10-11T01:31:26.521Z,1011.61
2022-10-11T01:31:59.138Z,1011.82
2022-10-11T01:32:30.246Z,1011.82
2022-10-11T01:33:03.105Z,1011.61
2022-10-11T01:33:33.590Z,1011.72
2022-10-11T01:33:50.165Z,1011.72
2022-10-11T01:34:22.300Z,1011.72
2022-10-11T01:34:39.247Z,1011.72
2022-10-11T01:35:11.436Z,1011.72
2022-10-11T01:35:33.743Z,1011.72
2022-10-11T01:35:58.513Z,1011.72
2022-10-11T01:36:30.269Z,1011.72
2022-10-11T01:37:02.316Z,1011.61
2022-10-11T01:37:33.757Z,1011.51
2022-10-11T01:37:50.227Z,1011.51
2022-10-11T01:38:23.102Z,1011.51
2022-10-11T01:38:40.165Z,1011.51
2022-10-11T01:39:10.259Z,1011.51
2022-10-11T01:39:33.772Z,1011.61
2022-10-11T01:39:58.409Z,1011.61
2022-10-11T01:40:31.116Z,1011.61
2022-10-11T01:41:02.257Z,1011.61
2022-10-11T01:41:34.456Z,1011.72
2022-10-11T01:42:06.712Z,1011.72
2022-10-11T01:42:33.661Z,1011.61
2022-10-11T01:42:55.349Z,1011.61
2022-10-11T01:43:26.301Z,1011.61
2022-10-11T01:43:58.431Z,1011.72
2022-10-11T01:44:30.416Z,1011.72
2022-10-11T01:45:02.407Z,1011.72
2022-10-11T01:45:33.769Z,1011.51
2022-10-11T01:45:50.369Z,1011.51
2022-10-11T01:46:22.906Z,1011.51
2022-10-11T01:46:40.201Z,1011.51
2022-10-11T01:47:10.741Z,1011.51
2022-10-11T01:47:33.568Z,1011.51
2022-10-11T01:47:58.284Z,1011.51
2022-10-11T01:48:30.917Z,1011.51
2022-10-11T01:49:02.280Z,1011.51
2022-10-11T01:49:34.712Z,1011.72
2022-10-11T01:50:06.516Z,1011.72
2022-10-11T01:50:33.602Z,1011.51
2022-10-11T01:50:55.126Z,1011.51
2022-10-11T01:51:26.262Z,1011.51
2022-10-11T01:51:58.467Z,1011.72
2022-10-11T01:52:30.417Z,1011.72
2022-10-11T01:53:18.344Z,1011.92
2022-10-11T01:53:50.433Z,1011.72
2022-10-11T01:54:22.509Z,1011.72
2022-10-11T01:55:07.561Z,1011.72
2022-10-11T01:55:10.652Z,1011.72
2022-10-11T01:55:33.748Z,1011.72
2022-10-11T01:55:59.216Z,1011.72
2022-10-11T01:56:30.411Z,1011.72
2022-10-11T01:57:02.967Z,1011.61
2022-10-11T01:57:33.731Z,1011.61
2022-10-11T01:57:50.277Z,1011.61
2022-10-11T01:58:22.473Z,1011.61
2022-10-11T01:58:39.664Z,1012.02
2022-10-11T01:59:11.062Z,1012.02
2022-10-11T01:59:33.634Z,1011.72
2022-10-11T01:59:58.314Z,1011.72
2022-10-11T02:00:31.347Z,1011.72
2022-10-11T02:01:02.433Z,1011.72
2022-10-11T02:01:34.552Z,1011.72
2022-10-11T02:02:06.293Z,1011.72
2022-10-11T02:02:33.626Z,1011.61
2022-10-11T02:02:54.944Z,1011.61
2022-10-11T02:03:26.320Z,1011.61
2022-10-11T02:03:59.074Z,1011.82
2022-10-11T02:04:30.293Z,1011.82
2022-10-11T02:05:02.632Z,1011.72
2022-10-11T02:05:33.703Z,1011.72
2022-10-11T02:05:50.329Z,1011.72
2022-10-11T02:06:23.058Z,1011.72
2022-10-11T02:06:40.088Z,1011.72
2022-10-11T02:07:10.407Z,1011.72
2022-10-11T02:07:33.913Z,1011.72
2022-10-11T02:07:58.397Z,1011.72
2022-10-11T02:08:30.984Z,1011.72
2022-10-11T02:09:05.708Z,1011.72
2022-10-11T02:09:34.519Z,1011.82
2022-10-11T02:10:06.393Z,1011.82
2022-10-11T02:10:33.721Z,1011.92
2022-10-11T02:10:55.427Z,1011.92
2022-10-11T02:11:26.393Z,1011.92
2022-10-11T02:11:58.968Z,1011.72
2022-10-11T02:12:30.333Z,1011.72
2022-10-11T02:13:03.167Z,1011.72
2022-10-11T02:13:33.626Z,1011.61
2022-10-11T02:13:50.203Z,1011.61
2022-10-11T02:14:22.336Z,1011.61
2022-10-11T02:14:39.362Z,1011.61
2022-10-11T02:15:11.474Z,1011.61
2022-10-11T02:15:33.800Z,1011.72
2022-10-11T02:15:58.510Z,1011.72
2022-10-11T02:16:30.221Z,1011.72
2022-10-11T02:17:02.477Z,1011.72
2022-10-11T02:17:33.588Z,1011.72
2022-10-11T02:17:50.323Z,1011.72
2022-10-11T02:18:22.952Z,1011.72
2022-10-11T02:18:40.038Z,1011.61
2022-10-11T02:19:10.262Z,1011.61
2022-10-11T02:19:34.014Z,1011.72
2022-10-11T02:19:58.412Z,1011.72
2022-10-11T02:20:31.215Z,1011.72
2022-10-11T02:21:02.333Z,1011.61
2022-10-11T02:21:34.323Z,1011.82
2022-10-11T02:22:06.451Z,1011.82
2022-10-11T02:22:33.655Z,1011.72
2022-10-11T02:22:54.242Z,1011.72
2022-10-11T02:23:26.284Z,1011.72
2022-10-11T02:23:59.019Z,1011.92
2022-10-11T02:24:30.456Z,1011.92
2022-10-11T02:25:03.121Z,1011.72
2022-10-11T02:25:33.606Z,1011.82
2022-10-11T02:25:50.388Z,1011.82
2022-10-11T02:26:22.528Z,1011.82
2022-10-11T02:26:39.557Z,1011.72
2022-10-11T02:27:11.126Z,1011.72
2022-10-11T02:27:33.787Z,1011.72
2022-10-11T02:27:58.377Z,1011.72
2022-10-11T02:28:30.589Z,1011.72
2022-10-11T02:29:02.272Z,1011.72
2022-10-11T02:29:33.770Z,1011.92
2022-10-11T02:29:50.200Z,1011.92
2022-10-11T02:30:23.393Z,1011.92
2022-10-11T02:30:40.361Z,1011.61
2022-10-11T02:31:10.467Z,1011.61
2022-10-11T02:31:33.620Z,1011.72
2022-10-11T02:31:58.241Z,1011.72
2022-10-11T02:32:31.158Z,1011.72
2022-10-11T02:33:02.457Z,1011.92
2022-10-11T02:33:33.734Z,1011.92
2022-10-11T02:33:50.934Z,1011.92
2022-10-11T02:34:22.314Z,1011.92
2022-10-11T02:34:39.455Z,1011.72
2022-10-11T02:35:10.602Z,1011.72
2022-10-11T02:35:33.622Z,1011.82
2022-10-11T02:35:59.173Z,1011.82
2022-10-11T02:36:30.306Z,1011.82
2022-10-11T02:37:03.201Z,1011.82
2022-10-11T02:37:33.737Z,1011.72
2022-10-11T02:37:50.089Z,1011.72
2022-10-11T02:38:22.315Z,1011.72
2022-10-11T02:38:39.380Z,1012.02
2022-10-11T02:39:11.205Z,1012.02
2022-10-11T02:39:33.801Z,1011.61
2022-10-11T02:39:58.330Z,1011.61
2022-10-11T02:40:30.432Z,1011.61
2022-10-11T02:41:02.273Z,1011.82
2022-10-11T02:41:33.835Z,1011.82
2022-10-11T02:41:50.425Z,1011.82
2022-10-11T02:42:23.027Z,1011.82
2022-10-11T02:42:40.091Z,1012.02
2022-10-11T02:43:10.274Z,1012.02
2022-10-11T02:43:33.835Z,1011.61
2022-10-11T02:43:58.440Z,1011.61
2022-10-11T02:44:30.967Z,1011.61
2022-10-11T02:45:02.514Z,1011.72
2022-10-11T02:45:33.635Z,1011.61
2022-10-11T02:45:50.909Z,1011.61
2022-10-11T02:46:22.472Z,1011.61
2022-10-11T02:46:39.380Z,1012.02
2022-10-11T02:47:10.277Z,1012.02
2022-10-11T02:47:34.153Z,1011.92
2022-10-11T02:47:59.075Z,1011.92
2022-10-11T02:48:30.456Z,1011.92
2022-10-11T02:49:03.006Z,1011.82
2022-10-11T02:49:33.608Z,1011.61
2022-10-11T02:49:50.243Z,1011.61
2022-10-11T02:50:22.562Z,1011.61
2022-10-11T02:50:39.491Z,1012.02
2022-10-11T02:51:11.203Z,1012.02
2022-10-11T02:51:34.614Z,1011.92
2022-10-11T02:51:58.387Z,1011.92
2022-10-11T02:52:30.420Z,1011.92
2022-10-11T02:53:02.361Z,1011.82
2022-10-11T02:53:34.256Z,1011.82
2022-10-11T02:54:06.370Z,1011.82
2022-10-11T02:54:33.647Z,1011.92
2022-10-11T02:54:54.413Z,1011.92
2022-10-11T02:55:27.199Z,1011.92
2022-10-11T02:55:58.295Z,1011.82
2022-10-11T02:56:30.721Z,1011.82
2022-10-11T02:57:02.449Z,1012.02
2022-10-11T02:57:33.800Z,1011.82
2022-10-11T02:57:50.942Z,1011.82
2022-10-11T02:58:22.365Z,1011.82
2022-10-11T02:58:39.418Z,1012.12
2022-10-11T02:59:10.511Z,1012.12
2022-10-11T02:59:33.581Z,1011.82
2022-10-11T02:59:59.063Z,1011.82
2022-10-11T03:00:30.519Z,1011.82
2022-10-11T03:01:02.437Z,1011.82
2022-10-11T03:01:34.128Z,1011.82
2022-10-11T03:01:50.105Z,1011.82
2022-10-11T03:02:23.100Z,1011.82
2022-10-11T03:02:40.255Z,1012.02
2022-10-11T03:03:10.402Z,1012.02
2022-10-11T03:03:33.786Z,1011.92
2022-10-11T03:03:58.248Z,1011.92
2022-10-11T03:04:31.057Z,1011.92
2022-10-11T03:05:02.474Z,1012.02
2022-10-11T03:05:34.541Z,1011.82
2022-10-11T03:06:06.854Z,1011.82
2022-10-11T03:06:34.059Z,1012.02
2022-10-11T03:06:54.974Z,1012.02
2022-10-11T03:07:26.429Z,1012.02
2022-10-11T03:07:59.002Z,1012.02
2022-10-11T03:08:30.255Z,1012.02
2022-10-11T03:09:02.352Z,1011.92
2022-10-11T03:09:33.586Z,1011.82
2022-10-11T03:09:50.286Z,1011.82
2022-10-11T03:10:23.051Z,1011.82
2022-10-11T03:10:40.055Z,1012.02
2022-10-11T03:11:10.289Z,1012.02
2022-10-11T03:11:33.714Z,1011.92
2022-10-11T03:11:58.523Z,1011.92
2022-10-11T03:12:30.963Z,1011.92
2022-10-11T03:13:02.275Z,1011.92
2022-10-11T03:13:34.270Z,1012.02
2022-10-11T03:14:06.495Z,1012.02
2022-10-11T03:14:33.582Z,1011.92
2022-10-11T03:14:54.243Z,1011.92
2022-10-11T03:15:26.451Z,1011.92
2022-10-11T03:16:03.565Z,1011.92
2022-10-11T03:16:30.427Z,1011.92
2022-10-11T03:17:17.572Z,1011.92
2022-10-11T03:17:37.099Z,1011.92
2022-10-11T03:18:06.292Z,1011.92
2022-10-11T03:18:34.181Z,1011.92
2022-10-11T03:18:54.370Z,1011.92
2022-10-11T03:19:27.697Z,1011.92
2022-10-11T03:19:58.247Z,1011.92
2022-10-11T03:20:31.348Z,1011.92
2022-10-11T03:21:02.426Z,1011.92
2022-10-11T03:21:35.800Z,1011.92
2022-10-11T03:22:06.277Z,1011.92
2022-10-11T03:22:33.765Z,1012.12
2022-10-11T03:22:54.425Z,1012.12
2022-10-11T03:23:26.419Z,1012.12
2022-10-11T03:24:15.069Z,1011.82
2022-10-11T03:24:33.604Z,1012.02
2022-10-11T03:25:04.298Z,1012.02
2022-10-11T03:25:33.961Z,1011.82
2022-10-11T03:26:06.968Z,1011.82
2022-10-11T03:26:34.596Z,1011.92
2022-10-11T03:26:54.228Z,1011.92
2022-10-11T03:27:26.966Z,1011.92
2022-10-11T03:27:58.286Z,1011.92
2022-10-11T03:28:31.265Z,1011.92
2022-10-11T03:29:02.438Z,1012.12
2022-10-11T03:29:34.583Z,1012.02
2022-10-11T03:30:06.470Z,1012.02
2022-10-11T03:30:33.844Z,1011.92
2022-10-11T03:30:54.354Z,1011.92
2022-10-11T03:31:26.489Z,1011.92
2022-10-11T03:31:59.070Z,1012.02
2022-10-11T03:32:30.346Z,1012.02
2022-10-11T03:33:03.062Z,1011.82
2022-10-11T03:33:33.986Z,1012.12
2022-10-11T03:34:06.575Z,1012.12
2022-10-11T03:34:33.697Z,1012.02
2022-10-11T03:34:54.255Z,1012.02
2022-10-11T03:35:27.384Z,1012.02
2022-10-11T03:35:58.442Z,1012.22
2022-10-11T03:36:31.075Z,1012.22
2022-10-11T03:37:02.345Z,1012.02
2022-10-11T03:37:34.391Z,1012.22
2022-10-11T03:38:09.133Z,1012.22
2022-10-11T03:38:33.668Z,1012.22
2022-10-11T03:38:55.065Z,1012.22
2022-10-11T03:39:26.409Z,1012.22
2022-10-11T03:39:59.000Z,1012.22
2022-10-11T03:40:30.416Z,1012.22
2022-10-11T03:41:03.247Z,1012.02
2022-10-11T03:41:33.600Z,1012.22
2022-10-11T03:41:50.276Z,1012.22
2022-10-11T03:42:22.418Z,1012.22
2022-10-11T03:42:39.495Z,1012.12
2022-10-11T03:43:11.208Z,1012.12
2022-10-11T03:43:33.810Z,1012.02
2022-10-11T03:43:58.427Z,1012.02
2022-10-11T03:44:30.512Z,1012.02
2022-10-11T03:45:02.543Z,1012.12
2022-10-11T03:45:33.587Z,1012.02
2022-10-11T03:45:50.368Z,1012.02
2022-10-11T03:46:22.979Z,1012.02
2022-10-11T03:46:40.110Z,1012.12
2022-10-11T03:47:10.281Z,1012.12
2022-10-11T03:47:35.343Z,1012.12
2022-10-11T03:47:58.439Z,1012.12
2022-10-11T03:48:31.015Z,1012.12
2022-10-11T03:49:02.289Z,1012.22
2022-10-11T03:49:34.288Z,1012.02
2022-10-11T03:50:06.596Z,1012.02
2022-10-11T03:50:33.623Z,1012.12
2022-10-11T03:50:55.253Z,1012.12
2022-10-11T03:51:26.249Z,1012.12
2022-10-11T03:51:59.120Z,1012.33
2022-10-11T03:52:30.437Z,1012.33
2022-10-11T03:53:03.272Z,1012.12
2022-10-11T03:53:34.118Z,1012.02
2022-10-11T03:54:07.259Z,1012.02
2022-10-11T03:54:33.654Z,1012.22
2022-10-11T03:54:54.324Z,1012.22
2022-10-11T03:55:26.357Z,1012.22
2022-10-11T03:55:58.469Z,1012.12
2022-10-11T03:56:30.467Z,1012.12
2022-10-11T03:57:02.348Z,1012.12
2022-10-11T03:57:33.598Z,1012.22
2022-10-11T03:57:50.285Z,1012.22
2022-10-11T03:58:23.289Z,1012.22
2022-10-11T03:58:40.425Z,1012.02
2022-10-11T03:59:17.247Z,1012.02
2022-10-11T03:59:42.256Z,1012.22
2022-10-11T04:00:15.418Z,1012.22
2022-10-11T04:00:33.771Z,1012.12
2022-10-11T04:01:02.369Z,1012.12
2022-10-11T04:01:34.175Z,1012.43
2022-10-11T04:02:06.447Z,1012.43
2022-10-11T04:02:38.321Z,1012.12
2022-10-11T04:02:54.430Z,1012.12
2022-10-11T04:03:27.121Z,1012.12
2022-10-11T04:03:58.331Z,1012.22
2022-10-11T04:04:31.401Z,1012.22
2022-10-11T04:05:02.536Z,1012.43
2022-10-11T04:05:35.884Z,1012.33
2022-10-11T04:06:06.541Z,1012.33
2022-10-11T04:06:33.730Z,1012.12
2022-10-11T04:06:54.964Z,1012.12
2022-10-11T04:07:26.299Z,1012.12
2022-10-11T04:07:58.255Z,1012.22
2022-10-11T04:08:30.355Z,1012.22
2022-10-11T04:09:02.469Z,1012.43
2022-10-11T04:09:33.793Z,1012.02
2022-10-11T04:09:50.073Z,1012.02
2022-10-11T04:10:23.361Z,1012.02
2022-10-11T04:10:40.288Z,1012.33
2022-10-11T04:11:10.449Z,1012.33
2022-10-11T04:11:33.639Z,1012.22
2022-10-11T04:11:58.281Z,1012.22
2022-10-11T04:12:31.160Z,1012.22
2022-10-11T04:13:02.482Z,1012.22
2022-10-11T04:13:33.685Z,1012.43
2022-10-11T04:13:50.792Z,1012.43
2022-10-11T04:14:22.343Z,1012.43
2022-10-11T04:14:39.382Z,1012.33
2022-10-11T04:15:11.395Z,1012.33
2022-10-11T04:15:33.772Z,1012.43
2022-10-11T04:15:58.734Z,1012.43
2022-10-11T04:16:30.299Z,1012.43
2022-10-11T04:17:02.283Z,1012.22
2022-10-11T04:17:33.701Z,1012.33
2022-10-11T04:17:50.378Z,1012.33
2022-10-11T04:18:22.984Z,1012.33
2022-10-11T04:18:40.146Z,1012.53
2022-10-11T04:19:10.329Z,1012.53
2022-10-11T04:19:33.808Z,1012.43
2022-10-11T04:19:58.465Z,1012.43
2022-10-11T04:20:31.104Z,1012.43
2022-10-11T04:21:02.336Z,1012.33
2022-10-11T04:21:35.357Z,1012.22
2022-10-11T04:22:06.503Z,1012.22
2022-10-11T04:22:33.936Z,1012.33
2022-10-11T04:22:54.286Z,1012.33
2022-10-11T04:23:26.254Z,1012.33
2022-10-11T04:23:59.127Z,1012.63
2022-10-11T04:24:30.441Z,1012.63
2022-10-11T04:25:03.222Z,1012.22
2022-10-11T04:25:33.787Z,1012.43
2022-10-11T04:25:50.309Z,1012.43
2022-10-11T04:26:22.473Z,1012.43
2022-10-11T04:26:39.524Z,1012.43
2022-10-11T04:27:10.982Z,1012.43
2022-10-11T04:27:33.705Z,1012.43
2022-10-11T04:27:58.289Z,1012.43
2022-10-11T04:28:31.066Z,1012.43
2022-10-11T04:29:02.571Z,1012.53
2022-10-11T04:29:33.968Z,1012.33
2022-10-11T04:30:06.480Z,1012.33
2022-10-11T04:30:33.796Z,1012.43
2022-10-11T04:30:55.059Z,1012.43
2022-10-11T04:31:26.326Z,1012.43
2022-10-11T04:31:58.293Z,1012.43
2022-10-11T04:32:30.311Z,1012.43
2022-10-11T04:33:02.438Z,1012.43
2022-10-11T04:33:33.741Z,1012.63
2022-10-11T04:33:50.078Z,1012.63
2022-10-11T04:34:23.021Z,1012.63
2022-10-11T04:34:40.173Z,1012.43
2022-10-11T04:35:10.653Z,1012.43
2022-10-11T04:35:33.598Z,1012.53
2022-10-11T04:35:59.190Z,1012.53
2022-10-11T04:36:30.326Z,1012.53
2022-10-11T04:37:02.426Z,1012.63
2022-10-11T04:37:33.643Z,1012.43
2022-10-11T04:37:50.168Z,1012.43
2022-10-11T04:38:23.095Z,1012.43
2022-10-11T04:38:40.283Z,1012.53
2022-10-11T04:39:10.389Z,1012.53
2022-10-11T04:39:34.040Z,1012.53
2022-10-11T04:39:58.451Z,1012.53
2022-10-11T04:40:31.119Z,1012.53
2022-10-11T04:41:02.280Z,1012.43
2022-10-11T04:41:33.669Z,1012.53
2022-10-11T04:41:50.783Z,1012.53
2022-10-11T04:42:22.327Z,1012.53
2022-10-11T04:42:39.358Z,1012.43
2022-10-11T04:43:10.300Z,1012.43
2022-10-11T04:43:34.082Z,1012.43
2022-10-11T04:43:58.991Z,1012.43
2022-10-11T04:44:30.410Z,1012.43
2022-10-11T04:45:03.393Z,1012.22
2022-10-11T04:45:33.644Z,1012.53
2022-10-11T04:45:54.614Z,1012.53
2022-10-11T04:46:22.439Z,1012.53
2022-10-11T04:46:39.541Z,1012.43
2022-10-11T04:47:11.110Z,1012.43
2022-10-11T04:47:33.668Z,1012.53
2022-10-11T04:47:58.325Z,1012.53
2022-10-11T04:48:31.268Z,1012.53
2022-10-11T04:49:18.291Z,1012.53
2022-10-11T04:49:50.265Z,1012.63
2022-10-11T04:50:22.586Z,1012.63
2022-10-11T04:50:40.341Z,1012.63
2022-10-11T04:51:10.321Z,1012.63
2022-10-11T04:51:33.636Z,1012.63
2022-10-11T04:51:58.239Z,1012.63
2022-10-11T04:52:30.573Z,1012.63
2022-10-11T04:53:03.013Z,1012.73
2022-10-11T04:53:33.825Z,1012.63
2022-10-11T04:53:50.074Z,1012.63
2022-10-11T04:54:22.255Z,1012.63
2022-10-11T04:54:39.395Z,1012.63
2022-10-11T04:55:11.135Z,1012.63
2022-10-11T04:55:33.603Z,1012.63
2022-10-11T04:55:58.382Z,1012.63
2022-10-11T04:56:31.114Z,1012.63
2022-10-11T04:57:02.436Z,1012.53
2022-10-11T04:57:34.542Z,1012.53
2022-10-11T04:58:06.281Z,1012.53
2022-10-11T04:58:33.790Z,1012.73
2022-10-11T04:59:10.466Z,1012.73
2022-10-11T04:59:33.720Z,1012.73
2022-10-11T04:59:59.036Z,1012.73
2022-10-11T05:00:31.040Z,1012.73
2022-10-11T05:01:02.379Z,1012.53
2022-10-11T05:01:34.039Z,1012.53
2022-10-11T05:02:06.600Z,1012.53
2022-10-11T05:02:33.739Z,1012.73
2022-10-11T05:02:54.250Z,1012.73
2022-10-11T05:03:27.154Z,1012.73
2022-10-11T05:03:58.447Z,1012.73
2022-10-11T05:04:30.339Z,1012.73
2022-10-11T05:05:02.386Z,1012.53
2022-10-11T05:05:33.919Z,1012.83
2022-10-11T05:05:51.027Z,1012.83
2022-10-11T05:06:22.328Z,1012.83
2022-10-11T05:06:39.406Z,1012.53
2022-10-11T05:07:11.168Z,1012.53
2022-10-11T05:07:33.614Z,1012.73
2022-10-11T05:07:58.312Z,1012.73
2022-10-11T05:08:30.319Z,1012.73
2022-10-11T05:09:02.412Z,1012.63
2022-10-11T05:09:33.587Z,1012.73
2022-10-11T05:09:50.112Z,1012.73
2022-10-11T05:10:23.246Z,1012.73
2022-10-11T05:10:40.228Z,1012.63
2022-10-11T05:11:10.306Z,1012.63
2022-10-11T05:11:34.013Z,1012.73
2022-10-11T05:11:58.459Z,1012.73
2022-10-11T05:12:31.241Z,1012.73
2022-10-11T05:13:02.300Z,1012.63
2022-10-11T05:13:34.258Z,1012.53
2022-10-11T05:14:06.467Z,1012.53
2022-10-11T05:14:33.699Z,1012.53
2022-10-11T05:14:55.091Z,1012.53
2022-10-11T05:15:26.548Z,1012.53
2022-10-11T05:15:58.409Z,1012.63
2022-10-11T05:16:30.420Z,1012.63
2022-10-11T05:17:02.332Z,1012.83
2022-10-11T05:17:33.766Z,1012.83
2022-10-11T05:17:50.198Z,1012.83
2022-10-11T05:18:22.971Z,1012.83
2022-10-11T05:18:40.151Z,1012.53
2022-10-11T05:19:10.367Z,1012.53
2022-10-11T05:19:33.616Z,1012.63
2022-10-11T05:19:59.176Z,1012.63
2022-10-11T05:20:30.544Z,1012.63
2022-10-11T05:21:03.014Z,1012.53
2022-10-11T05:21:33.766Z,1012.83
2022-10-11T05:21:50.147Z,1012.83
2022-10-11T05:22:22.514Z,1012.83
2022-10-11T05:22:39.613Z,1012.63
2022-10-11T05:23:10.966Z,1012.63
2022-10-11T05:23:33.701Z,1012.63
2022-10-11T05:23:58.262Z,1012.63
2022-10-11T05:24:30.423Z,1012.63
2022-10-11T05:25:02.556Z,1012.73
2022-10-11T05:25:33.818Z,1012.83
2022-10-11T05:25:50.218Z,1012.83
2022-10-11T05:26:23.329Z,1012.83
2022-10-11T05:26:40.427Z,1012.83
2022-10-11T05:27:10.517Z,1012.83
2022-10-11T05:27:34.293Z,1012.83
2022-10-11T05:27:58.984Z,1012.83
2022-10-11T05:28:30.408Z,1012.83
2022-10-11T05:29:03.240Z,1012.83
2022-10-11T05:29:33.693Z,1012.93
2022-10-11T05:29:50.114Z,1012.93
2022-10-11T05:30:22.530Z,1012.93
2022-10-11T05:30:39.387Z,1012.93
2022-10-11T05:31:11.323Z,1012.93
2022-10-11T05:31:33.898Z,1012.73
2022-10-11T05:31:58.426Z,1012.73
2022-10-11T05:32:30.364Z,1012.73
2022-10-11T05:33:02.323Z,1012.83
2022-10-11T05:33:34.505Z,1012.83
2022-10-11T05:34:06.565Z,1012.83
2022-10-11T05:34:33.792Z,1012.73
2022-10-11T05:34:54.288Z,1012.73
2022-10-11T05:35:27.410Z,1012.73
2022-10-11T05:35:58.498Z,1012.73
2022-10-11T05:36:31.053Z,1012.73
2022-10-11T05:37:02.337Z,1012.83
2022-10-11T05:37:34.630Z,1012.63
2022-10-11T05:38:06.347Z,1012.63
2022-10-11T05:38:33.799Z,1012.83